Axtell, UT (84621)

12:36 PM MDT on August 29, 2015 (GMT -0600)
Salina-Northeast Fields | | Change Station
CLOSE
Current Station
Personal Weather Station
Location: Salina, UT
Elevation: 5174 ft
Nearby Weather Stations

Elev 5174 ft 39.00 °N, 111.83 °W | Updated 6 minutes ago

Clear
Clear
84.5 °F
Feels Like 86 °F
N
4.0
Wind Variable Wind from WSW
Gusts 8.0 mph

Today
High -- | Low -- °F
--% Chance of Precip.
Yesterday
High -- | Low -- °F
Precip. -- in
6:52 AM 8:02 PM
Full, 100% visible
Pressure 30.02 in
Visibility 10.0 miles
Clouds Clear
Heat Index 86 °F
Dew Point 63 °F
Humidity 49%
Rainfall 0.00 in
Snow Depth Not available.
UV 9 out of 12
Pollen 9.30 out of 12
Air Quality Not available.
Flu Activity Not available.
METAR KPUC 291753Z AUTO 20005KT 10SM CLR 27/02 A3028 RMK AO2 SLP166 T02720022 10272 20139 50002
Pressure 30.02 in
Visibility 10.0 miles
Clouds Clear
Heat Index 86 °F
Dew Point 63 °F
Humidity 49%
Rainfall 0.00 in
Snow Depth Not available.
UV 9 out of 12
Pollen 9.30 out of 12
Air Quality Not available.
Flu Activity Not available.
METAR KPUC 291753Z AUTO 20005KT 10SM CLR 27/02 A3028 RMK AO2 SLP166 T02720022 10272 20139 50002

10-Day Weather Forecast

×

Almanac

Astronomy

Aug. 29, 2015 Rise Set
Actual Time
Civil Twilight
Nautical Twilight
Astronomical Twilight
Moon
Length of Visible Light
Length of Day
Tomorrow will be .
, % of the Moon is Illuminated

Today's Extremes

State Highs State Lows

Community

WunderPhotos

Upload Photos

1,850,761 photos uploaded!

WunderBlogs® & News

Nearby

Air Quality

  Air Quality AQ Index Pollutant
Not available.

Snow Depth

Station Depth Elevation

Earthquake Activity

City Distance Mag. Time & Date
Minimum magnitude displayed is 2.5.

Coastal Water Temperatures

Place Temperature

Stations

Nearby Weather Stations

Station Location Temp. Windchill Dew Point Humidity Wind Precip. Elev Updated Type